sensor_id;sensor_type;location;lat;lon;timestamp;temperature;humidity
12769;DHT22;6448;48.916;8.990;2023-02-10T00:00:42;4.20;50.10
12769;DHT22;6448;48.916;8.990;2023-02-10T00:01:44;4.20;50.10
12769;DHT22;6448;48.916;8.990;2023-02-10T00:02:46;4.20;50.10
12769;DHT22;6448;48.916;8.990;2023-02-10T00:03:47;4.20;50.10
12769;DHT22;6448;48.916;8.990;2023-02-10T00:04:49;4.20;50.10
12769;DHT22;6448;48.916;8.990;2023-02-10T00:05:51;4.20;50.10
12769;DHT22;6448;48.916;8.990;2023-02-10T00:06:53;4.20;50.10
12769;DHT22;6448;48.916;8.990;2023-02-10T00:07:54;4.20;50.10
12769;DHT22;6448;48.916;8.990;2023-02-10T00:08:58;4.20;50.10
12769;DHT22;6448;48.916;8.990;2023-02-10T00:10:00;4.20;50.10
12769;DHT22;6448;48.916;8.990;2023-02-10T00:11:02;4.20;50.10
12769;DHT22;6448;48.916;8.990;2023-02-10T00:12:04;4.20;50.20
12769;DHT22;6448;48.916;8.990;2023-02-10T00:13:08;4.10;50.20
12769;DHT22;6448;48.916;8.990;2023-02-10T00:14:10;4.10;50.20
12769;DHT22;6448;48.916;8.990;2023-02-10T00:15:11;4.10;50.20
12769;DHT22;6448;48.916;8.990;2023-02-10T00:16:14;4.10;50.20
12769;DHT22;6448;48.916;8.990;2023-02-10T00:17:15;4.10;50.30
12769;DHT22;6448;48.916;8.990;2023-02-10T00:18:17;4.10;50.30
12769;DHT22;6448;48.916;8.990;2023-02-10T00:19:19;4.10;50.30
12769;DHT22;6448;48.916;8.990;2023-02-10T00:20:20;4.10;50.30
12769;DHT22;6448;48.916;8.990;2023-02-10T00:21:21;3.90;50.10
12769;DHT22;6448;48.916;8.990;2023-02-10T00:22:23;4.10;50.30
12769;DHT22;6448;48.916;8.990;2023-02-10T00:23:25;4.10;50.30
12769;DHT22;6448;48.916;8.990;2023-02-10T00:24:27;4.30;50.40
12769;DHT22;6448;48.916;8.990;2023-02-10T00:25:29;4.10;50.30
12769;DHT22;6448;48.916;8.990;2023-02-10T00:26:30;4.10;50.30
12769;DHT22;6448;48.916;8.990;2023-02-10T00:27:32;4.10;50.30
12769;DHT22;6448;48.916;8.990;2023-02-10T00:28:34;4.10;50.20
12769;DHT22;6448;48.916;8.990;2023-02-10T00:29:36;4.10;50.30
12769;DHT22;6448;48.916;8.990;2023-02-10T00:30:37;4.10;50.30
12769;DHT22;6448;48.916;8.990;2023-02-10T00:31:39;4.00;50.30
12769;DHT22;6448;48.916;8.990;2023-02-10T00:32:39;4.10;50.40
12769;DHT22;6448;48.916;8.990;2023-02-10T00:33:41;4.00;50.40
12769;DHT22;6448;48.916;8.990;2023-02-10T00:34:42;4.00;50.30
12769;DHT22;6448;48.916;8.990;2023-02-10T00:35:44;4.00;50.40
12769;DHT22;6448;48.916;8.990;2023-02-10T00:36:45;4.00;50.30
12769;DHT22;6448;48.916;8.990;2023-02-10T00:37:46;4.00;50.40
12769;DHT22;6448;48.916;8.990;2023-02-10T00:38:47;4.00;50.40
12769;DHT22;6448;48.916;8.990;2023-02-10T00:39:50;4.00;50.40
12769;DHT22;6448;48.916;8.990;2023-02-10T00:40:51;4.00;50.40
12769;DHT22;6448;48.916;8.990;2023-02-10T00:41:53;4.00;50.40
12769;DHT22;6448;48.916;8.990;2023-02-10T00:42:54;4.00;50.50
12769;DHT22;6448;48.916;8.990;2023-02-10T00:43:56;4.00;50.40
12769;DHT22;6448;48.916;8.990;2023-02-10T00:44:57;4.00;50.50
12769;DHT22;6448;48.916;8.990;2023-02-10T00:45:58;4.00;50.50
12769;DHT22;6448;48.916;8.990;2023-02-10T00:46:59;4.00;50.50
12769;DHT22;6448;48.916;8.990;2023-02-10T00:48:01;4.00;50.50
12769;DHT22;6448;48.916;8.990;2023-02-10T00:49:02;4.00;50.50
12769;DHT22;6448;48.916;8.990;2023-02-10T00:50:04;3.90;50.50
12769;DHT22;6448;48.916;8.990;2023-02-10T00:51:06;3.90;50.50
12769;DHT22;6448;48.916;8.990;2023-02-10T00:52:08;3.90;50.50
12769;DHT22;6448;48.916;8.990;2023-02-10T00:53:09;3.90;50.40
12769;DHT22;6448;48.916;8.990;2023-02-10T00:54:11;3.90;50.40
12769;DHT22;6448;48.916;8.990;2023-02-10T00:55:14;3.90;50.50
12769;DHT22;6448;48.916;8.990;2023-02-10T00:56:16;3.90;50.40
12769;DHT22;6448;48.916;8.990;2023-02-10T00:57:17;3.90;50.40
12769;DHT22;6448;48.916;8.990;2023-02-10T00:58:19;3.90;50.40
12769;DHT22;6448;48.916;8.990;2023-02-10T00:59:20;3.90;50.50
12769;DHT22;6448;48.916;8.990;2023-02-10T01:00:22;3.90;50.40
12769;DHT22;6448;48.916;8.990;2023-02-10T01:01:23;3.90;50.40
12769;DHT22;6448;48.916;8.990;2023-02-10T01:02:24;3.90;50.40
12769;DHT22;6448;48.916;8.990;2023-02-10T01:03:25;3.90;51.00
12769;DHT22;6448;48.916;8.990;2023-02-10T01:04:27;3.80;50.40
12769;DHT22;6448;48.916;8.990;2023-02-10T01:05:29;4.00;50.50
12769;DHT22;6448;48.916;8.990;2023-02-10T01:06:31;3.80;50.40
12769;DHT22;6448;48.916;8.990;2023-02-10T01:07:32;3.80;50.40
12769;DHT22;6448;48.916;8.990;2023-02-10T01:08:34;3.70;50.50
12769;DHT22;6448;48.916;8.990;2023-02-10T01:09:35;3.80;50.50
12769;DHT22;6448;48.916;8.990;2023-02-10T01:10:38;3.80;50.50
12769;DHT22;6448;48.916;8.990;2023-02-10T01:11:39;3.80;50.50
12769;DHT22;6448;48.916;8.990;2023-02-10T01:12:41;3.80;50.70
12769;DHT22;6448;48.916;8.990;2023-02-10T01:13:42;3.80;50.70
12769;DHT22;6448;48.916;8.990;2023-02-10T01:14:44;3.80;50.70
12769;DHT22;6448;48.916;8.990;2023-02-10T01:15:46;3.80;50.70
12769;DHT22;6448;48.916;8.990;2023-02-10T01:16:48;3.80;50.80
12769;DHT22;6448;48.916;8.990;2023-02-10T01:17:49;3.80;50.70
12769;DHT22;6448;48.916;8.990;2023-02-10T01:18:50;3.80;50.80
12769;DHT22;6448;48.916;8.990;2023-02-10T01:19:51;3.70;50.70
12769;DHT22;6448;48.916;8.990;2023-02-10T01:20:53;3.70;50.80
12769;DHT22;6448;48.916;8.990;2023-02-10T01:21:54;3.80;50.80
12769;DHT22;6448;48.916;8.990;2023-02-10T01:22:56;3.70;50.80
12769;DHT22;6448;48.916;8.990;2023-02-10T01:23:56;3.70;50.80
12769;DHT22;6448;48.916;8.990;2023-02-10T01:24:58;3.70;50.80
12769;DHT22;6448;48.916;8.990;2023-02-10T01:26:01;3.70;50.70
12769;DHT22;6448;48.916;8.990;2023-02-10T01:27:02;3.70;50.70
12769;DHT22;6448;48.916;8.990;2023-02-10T01:28:04;3.70;50.70
12769;DHT22;6448;48.916;8.990;2023-02-10T01:29:06;3.70;50.70
12769;DHT22;6448;48.916;8.990;2023-02-10T01:30:08;3.70;50.70
12769;DHT22;6448;48.916;8.990;2023-02-10T01:31:14;3.70;50.80
12769;DHT22;6448;48.916;8.990;2023-02-10T01:32:15;3.90;50.80
12769;DHT22;6448;48.916;8.990;2023-02-10T01:33:16;3.70;50.70
12769;DHT22;6448;48.916;8.990;2023-02-10T01:34:17;3.70;50.70
12769;DHT22;6448;48.916;8.990;2023-02-10T01:35:19;3.70;50.70
12769;DHT22;6448;48.916;8.990;2023-02-10T01:36:21;3.70;50.70
12769;DHT22;6448;48.916;8.990;2023-02-10T01:37:23;3.70;50.70
12769;DHT22;6448;48.916;8.990;2023-02-10T01:38:24;3.70;50.70
12769;DHT22;6448;48.916;8.990;2023-02-10T01:39:26;3.60;50.60
12769;DHT22;6448;48.916;8.990;2023-02-10T01:40:27;3.60;50.60
12769;DHT22;6448;48.916;8.990;2023-02-10T01:41:30;3.70;50.70
12769;DHT22;6448;48.916;8.990;2023-02-10T01:42:34;3.60;50.70
12769;DHT22;6448;48.916;8.990;2023-02-10T01:43:54;3.60;50.70
12769;DHT22;6448;48.916;8.990;2023-02-10T01:45:22;3.60;50.70
12769;DHT22;6448;48.916;8.990;2023-02-10T01:46:25;3.60;50.70
12769;DHT22;6448;48.916;8.990;2023-02-10T01:47:26;3.60;50.70
12769;DHT22;6448;48.916;8.990;2023-02-10T01:48:29;3.60;50.70
12769;DHT22;6448;48.916;8.990;2023-02-10T01:49:34;3.60;50.70
12769;DHT22;6448;48.916;8.990;2023-02-10T01:50:42;3.60;50.70
12769;DHT22;6448;48.916;8.990;2023-02-10T01:51:51;3.70;50.80
12769;DHT22;6448;48.916;8.990;2023-02-10T01:52:54;3.60;50.80
12769;DHT22;6448;48.916;8.990;2023-02-10T01:53:56;3.60;50.70
12769;DHT22;6448;48.916;8.990;2023-02-10T01:55:04;3.60;50.80
12769;DHT22;6448;48.916;8.990;2023-02-10T01:56:06;3.60;50.80
12769;DHT22;6448;48.916;8.990;2023-02-10T01:57:11;3.50;50.70
12769;DHT22;6448;48.916;8.990;2023-02-10T01:58:15;3.50;50.80
12769;DHT22;6448;48.916;8.990;2023-02-10T01:59:20;3.70;50.90
12769;DHT22;6448;48.916;8.990;2023-02-10T02:00:23;3.50;50.80
12769;DHT22;6448;48.916;8.990;2023-02-10T02:01:25;3.50;50.70
12769;DHT22;6448;48.916;8.990;2023-02-10T02:02:27;3.60;50.70
12769;DHT22;6448;48.916;8.990;2023-02-10T02:03:29;3.50;50.70
12769;DHT22;6448;48.916;8.990;2023-02-10T02:04:31;3.50;50.80
12769;DHT22;6448;48.916;8.990;2023-02-10T02:05:35;3.50;50.70
12769;DHT22;6448;48.916;8.990;2023-02-10T02:06:36;3.50;50.80
12769;DHT22;6448;48.916;8.990;2023-02-10T02:07:38;3.50;50.80
12769;DHT22;6448;48.916;8.990;2023-02-10T02:08:39;3.70;50.90
12769;DHT22;6448;48.916;8.990;2023-02-10T02:09:43;3.50;50.80
12769;DHT22;6448;48.916;8.990;2023-02-10T02:10:58;3.50;50.90
12769;DHT22;6448;48.916;8.990;2023-02-10T02:12:06;3.50;50.90
12769;DHT22;6448;48.916;8.990;2023-02-10T02:13:15;3.50;50.90
12769;DHT22;6448;48.916;8.990;2023-02-10T02:14:29;3.50;50.90
12769;DHT22;6448;48.916;8.990;2023-02-10T02:15:34;3.40;50.80
12769;DHT22;6448;48.916;8.990;2023-02-10T02:16:57;3.40;50.80
12769;DHT22;6448;48.916;8.990;2023-02-10T02:18:05;3.60;51.00
12769;DHT22;6448;48.916;8.990;2023-02-10T02:21:03;3.40;50.90
12769;DHT22;6448;48.916;8.990;2023-02-10T02:22:22;3.30;50.90
12769;DHT22;6448;48.916;8.990;2023-02-10T02:23:54;3.40;50.90
12769;DHT22;6448;48.916;8.990;2023-02-10T02:25:15;3.40;50.90
12769;DHT22;6448;48.916;8.990;2023-02-10T02:26:38;3.40;51.00
12769;DHT22;6448;48.916;8.990;2023-02-10T02:28:05;3.40;51.00
12769;DHT22;6448;48.916;8.990;2023-02-10T02:29:30;3.40;51.00
12769;DHT22;6448;48.916;8.990;2023-02-10T02:30:56;3.30;51.00
12769;DHT22;6448;48.916;8.990;2023-02-10T02:32:09;3.40;51.00
12769;DHT22;6448;48.916;8.990;2023-02-10T02:33:14;3.50;51.00
12769;DHT22;6448;48.916;8.990;2023-02-10T02:34:24;3.30;50.80
12769;DHT22;6448;48.916;8.990;2023-02-10T02:35:30;3.30;50.80
12769;DHT22;6448;48.916;8.990;2023-02-10T02:36:35;3.30;50.80
12769;DHT22;6448;48.916;8.990;2023-02-10T02:37:39;3.30;50.90
12769;DHT22;6448;48.916;8.990;2023-02-10T02:38:43;3.30;50.90
12769;DHT22;6448;48.916;8.990;2023-02-10T02:39:44;3.30;51.00
12769;DHT22;6448;48.916;8.990;2023-02-10T02:40:46;3.30;50.90
12769;DHT22;6448;48.916;8.990;2023-02-10T02:41:46;3.40;51.00
12769;DHT22;6448;48.916;8.990;2023-02-10T02:42:50;3.30;51.00
12769;DHT22;6448;48.916;8.990;2023-02-10T02:43:51;3.30;50.90
12769;DHT22;6448;48.916;8.990;2023-02-10T02:44:56;3.30;51.00
12769;DHT22;6448;48.916;8.990;2023-02-10T02:46:03;3.30;51.10
12769;DHT22;6448;48.916;8.990;2023-02-10T02:47:13;3.30;51.10
12769;DHT22;6448;48.916;8.990;2023-02-10T02:48:31;3.30;51.10
12769;DHT22;6448;48.916;8.990;2023-02-10T02:49:41;3.30;51.00
12769;DHT22;6448;48.916;8.990;2023-02-10T02:50:49;3.20;51.00
12769;DHT22;6448;48.916;8.990;2023-02-10T02:52:00;3.30;51.10
12769;DHT22;6448;48.916;8.990;2023-02-10T02:53:21;3.20;51.00
12769;DHT22;6448;48.916;8.990;2023-02-10T02:54:26;3.20;51.10
12769;DHT22;6448;48.916;8.990;2023-02-10T02:55:39;3.20;51.10
12769;DHT22;6448;48.916;8.990;2023-02-10T02:56:46;3.20;51.10
12769;DHT22;6448;48.916;8.990;2023-02-10T02:57:53;3.20;51.10
12769;DHT22;6448;48.916;8.990;2023-02-10T02:59:03;3.20;51.00
12769;DHT22;6448;48.916;8.990;2023-02-10T03:00:13;3.20;51.00
12769;DHT22;6448;48.916;8.990;2023-02-10T03:01:20;3.20;50.90
12769;DHT22;6448;48.916;8.990;2023-02-10T03:02:26;3.20;51.00
12769;DHT22;6448;48.916;8.990;2023-02-10T03:03:30;3.20;51.00
12769;DHT22;6448;48.916;8.990;2023-02-10T03:04:33;3.20;51.00
12769;DHT22;6448;48.916;8.990;2023-02-10T03:05:35;3.20;51.00
12769;DHT22;6448;48.916;8.990;2023-02-10T03:06:37;3.20;51.10
12769;DHT22;6448;48.916;8.990;2023-02-10T03:07:37;3.20;51.10
12769;DHT22;6448;48.916;8.990;2023-02-10T03:08:40;3.10;51.10
12769;DHT22;6448;48.916;8.990;2023-02-10T03:09:42;3.20;51.10
12769;DHT22;6448;48.916;8.990;2023-02-10T03:10:44;3.10;51.10
12769;DHT22;6448;48.916;8.990;2023-02-10T03:11:45;3.10;51.10
12769;DHT22;6448;48.916;8.990;2023-02-10T03:12:47;3.20;51.10
12769;DHT22;6448;48.916;8.990;2023-02-10T03:13:48;3.20;51.10
12769;DHT22;6448;48.916;8.990;2023-02-10T03:14:49;3.10;51.10
12769;DHT22;6448;48.916;8.990;2023-02-10T03:15:50;3.10;51.10
12769;DHT22;6448;48.916;8.990;2023-02-10T03:16:52;3.10;51.10
12769;DHT22;6448;48.916;8.990;2023-02-10T03:17:55;3.10;51.00
12769;DHT22;6448;48.916;8.990;2023-02-10T03:18:55;3.10;51.00
12769;DHT22;6448;48.916;8.990;2023-02-10T03:19:57;3.10;51.10
12769;DHT22;6448;48.916;8.990;2023-02-10T03:20:58;3.10;51.00
12769;DHT22;6448;48.916;8.990;2023-02-10T03:22:00;3.10;51.10
12769;DHT22;6448;48.916;8.990;2023-02-10T03:23:00;3.10;51.00
12769;DHT22;6448;48.916;8.990;2023-02-10T03:24:03;3.10;51.00
12769;DHT22;6448;48.916;8.990;2023-02-10T03:25:04;3.10;51.10
12769;DHT22;6448;48.916;8.990;2023-02-10T03:26:06;3.10;51.10
12769;DHT22;6448;48.916;8.990;2023-02-10T03:27:07;3.00;51.00
12769;DHT22;6448;48.916;8.990;2023-02-10T03:28:08;3.10;51.10
12769;DHT22;6448;48.916;8.990;2023-02-10T03:29:10;3.00;51.00
12769;DHT22;6448;48.916;8.990;2023-02-10T03:30:13;3.00;51.00
12769;DHT22;6448;48.916;8.990;2023-02-10T03:31:13;3.00;51.00
12769;DHT22;6448;48.916;8.990;2023-02-10T03:32:15;3.00;51.00
12769;DHT22;6448;48.916;8.990;2023-02-10T03:33:18;3.00;51.10
12769;DHT22;6448;48.916;8.990;2023-02-10T03:34:20;3.00;51.00
12769;DHT22;6448;48.916;8.990;2023-02-10T03:35:21;3.00;51.10
12769;DHT22;6448;48.916;8.990;2023-02-10T03:36:24;3.00;51.00
12769;DHT22;6448;48.916;8.990;2023-02-10T03:37:24;3.00;51.10
12769;DHT22;6448;48.916;8.990;2023-02-10T03:38:27;3.00;51.00
12769;DHT22;6448;48.916;8.990;2023-02-10T03:39:29;3.00;51.10
12769;DHT22;6448;48.916;8.990;2023-02-10T03:40:29;3.00;51.00
12769;DHT22;6448;48.916;8.990;2023-02-10T03:41:31;3.00;51.00
12769;DHT22;6448;48.916;8.990;2023-02-10T03:42:32;3.00;51.00
12769;DHT22;6448;48.916;8.990;2023-02-10T03:43:34;3.00;51.10
12769;DHT22;6448;48.916;8.990;2023-02-10T03:44:35;3.00;51.00
12769;DHT22;6448;48.916;8.990;2023-02-10T03:45:38;3.00;51.10
12769;DHT22;6448;48.916;8.990;2023-02-10T03:46:40;3.00;51.10
12769;DHT22;6448;48.916;8.990;2023-02-10T03:47:42;2.90;51.00
12769;DHT22;6448;48.916;8.990;2023-02-10T03:48:44;3.00;51.10
12769;DHT22;6448;48.916;8.990;2023-02-10T03:49:45;2.90;51.10
12769;DHT22;6448;48.916;8.990;2023-02-10T03:50:47;3.00;51.20
12769;DHT22;6448;48.916;8.990;2023-02-10T03:51:49;3.00;51.30
12769;DHT22;6448;48.916;8.990;2023-02-10T03:52:50;3.00;51.10
12769;DHT22;6448;48.916;8.990;2023-02-10T03:53:52;2.90;51.00
12769;DHT22;6448;48.916;8.990;2023-02-10T03:54:52;3.00;51.10
12769;DHT22;6448;48.916;8.990;2023-02-10T03:55:54;2.90;51.00
12769;DHT22;6448;48.916;8.990;2023-02-10T03:56:55;2.90;51.00
12769;DHT22;6448;48.916;8.990;2023-02-10T03:57:57;3.00;51.10
12769;DHT22;6448;48.916;8.990;2023-02-10T03:59:00;2.90;51.00
12769;DHT22;6448;48.916;8.990;2023-02-10T04:00:03;2.90;51.10
12769;DHT22;6448;48.916;8.990;2023-02-10T04:01:16;2.90;51.00
12769;DHT22;6448;48.916;8.990;2023-02-10T04:02:18;2.90;51.10
12769;DHT22;6448;48.916;8.990;2023-02-10T04:03:18;2.90;51.10
12769;DHT22;6448;48.916;8.990;2023-02-10T04:04:22;2.90;51.10
12769;DHT22;6448;48.916;8.990;2023-02-10T04:05:22;2.90;51.10
12769;DHT22;6448;48.916;8.990;2023-02-10T04:06:24;2.90;51.20
12769;DHT22;6448;48.916;8.990;2023-02-10T04:07:25;2.90;51.10
12769;DHT22;6448;48.916;8.990;2023-02-10T04:08:27;2.90;51.10
12769;DHT22;6448;48.916;8.990;2023-02-10T04:09:30;2.90;51.10
12769;DHT22;6448;48.916;8.990;2023-02-10T04:10:32;2.80;51.10
12769;DHT22;6448;48.916;8.990;2023-02-10T04:11:33;2.90;51.20
12769;DHT22;6448;48.916;8.990;2023-02-10T04:12:35;2.90;51.10
12769;DHT22;6448;48.916;8.990;2023-02-10T04:13:36;2.80;51.10
12769;DHT22;6448;48.916;8.990;2023-02-10T04:14:38;2.80;51.00
12769;DHT22;6448;48.916;8.990;2023-02-10T04:15:39;2.80;51.00
12769;DHT22;6448;48.916;8.990;2023-02-10T04:16:40;2.80;51.00
12769;DHT22;6448;48.916;8.990;2023-02-10T04:17:41;2.80;51.00
12769;DHT22;6448;48.916;8.990;2023-02-10T04:18:43;2.80;51.00
12769;DHT22;6448;48.916;8.990;2023-02-10T04:19:45;2.40;50.80
12769;DHT22;6448;48.916;8.990;2023-02-10T04:20:47;2.90;51.00
12769;DHT22;6448;48.916;8.990;2023-02-10T04:21:50;2.80;51.00
12769;DHT22;6448;48.916;8.990;2023-02-10T04:22:52;2.80;51.00
12769;DHT22;6448;48.916;8.990;2023-02-10T04:23:53;2.80;51.00
12769;DHT22;6448;48.916;8.990;2023-02-10T04:24:56;2.80;51.00
12769;DHT22;6448;48.916;8.990;2023-02-10T04:25:57;2.70;51.00
12769;DHT22;6448;48.916;8.990;2023-02-10T04:26:58;2.70;51.00
12769;DHT22;6448;48.916;8.990;2023-02-10T04:27:59;2.70;51.00
12769;DHT22;6448;48.916;8.990;2023-02-10T04:29:01;2.70;51.00
12769;DHT22;6448;48.916;8.990;2023-02-10T04:30:02;2.70;51.00
12769;DHT22;6448;48.916;8.990;2023-02-10T04:31:04;2.70;51.00
12769;DHT22;6448;48.916;8.990;2023-02-10T04:32:06;2.70;51.10
12769;DHT22;6448;48.916;8.990;2023-02-10T04:33:07;2.70;51.00
12769;DHT22;6448;48.916;8.990;2023-02-10T04:34:08;2.70;51.10
12769;DHT22;6448;48.916;8.990;2023-02-10T04:35:11;2.70;51.10
12769;DHT22;6448;48.916;8.990;2023-02-10T04:36:12;2.70;51.10
12769;DHT22;6448;48.916;8.990;2023-02-10T04:37:14;2.70;51.70
12769;DHT22;6448;48.916;8.990;2023-02-10T04:38:16;2.70;51.10
12769;DHT22;6448;48.916;8.990;2023-02-10T04:39:17;2.70;51.10
12769;DHT22;6448;48.916;8.990;2023-02-10T04:40:19;2.70;51.10
12769;DHT22;6448;48.916;8.990;2023-02-10T04:41:20;2.70;51.10
12769;DHT22;6448;48.916;8.990;2023-02-10T04:42:21;2.70;51.10
12769;DHT22;6448;48.916;8.990;2023-02-10T04:43:30;2.70;51.10
12769;DHT22;6448;48.916;8.990;2023-02-10T04:44:32;2.70;51.10
12769;DHT22;6448;48.916;8.990;2023-02-10T04:45:32;2.70;51.20
12769;DHT22;6448;48.916;8.990;2023-02-10T04:46:34;2.70;51.20
12769;DHT22;6448;48.916;8.990;2023-02-10T04:47:35;2.70;51.20
12769;DHT22;6448;48.916;8.990;2023-02-10T04:48:37;2.70;51.20
12769;DHT22;6448;48.916;8.990;2023-02-10T04:49:38;2.60;51.10
12769;DHT22;6448;48.916;8.990;2023-02-10T04:50:41;2.70;51.20
12769;DHT22;6448;48.916;8.990;2023-02-10T04:51:42;2.70;51.20
12769;DHT22;6448;48.916;8.990;2023-02-10T04:52:44;2.60;51.20
12769;DHT22;6448;48.916;8.990;2023-02-10T04:53:45;2.60;51.20
12769;DHT22;6448;48.916;8.990;2023-02-10T04:54:47;2.70;51.30
12769;DHT22;6448;48.916;8.990;2023-02-10T04:55:48;2.60;51.20
12769;DHT22;6448;48.916;8.990;2023-02-10T04:56:50;2.60;51.20
12769;DHT22;6448;48.916;8.990;2023-02-10T04:57:51;2.70;51.20
12769;DHT22;6448;48.916;8.990;2023-02-10T04:58:52;2.60;51.20
12769;DHT22;6448;48.916;8.990;2023-02-10T04:59:53;2.60;51.20
12769;DHT22;6448;48.916;8.990;2023-02-10T05:00:55;2.60;51.20
12769;DHT22;6448;48.916;8.990;2023-02-10T05:01:56;2.60;51.20
12769;DHT22;6448;48.916;8.990;2023-02-10T05:02:58;2.60;51.20
12769;DHT22;6448;48.916;8.990;2023-02-10T05:03:59;2.60;51.20
12769;DHT22;6448;48.916;8.990;2023-02-10T05:05:01;2.60;51.20
12769;DHT22;6448;48.916;8.990;2023-02-10T05:06:08;2.60;51.20
12769;DHT22;6448;48.916;8.990;2023-02-10T05:07:10;2.60;51.20
12769;DHT22;6448;48.916;8.990;2023-02-10T05:08:11;2.60;51.20
12769;DHT22;6448;48.916;8.990;2023-02-10T05:09:12;2.60;51.30
12769;DHT22;6448;48.916;8.990;2023-02-10T05:10:13;2.60;51.20
12769;DHT22;6448;48.916;8.990;2023-02-10T05:11:16;2.60;51.20
12769;DHT22;6448;48.916;8.990;2023-02-10T05:12:16;2.60;51.20
12769;DHT22;6448;48.916;8.990;2023-02-10T05:13:19;2.60;51.20
12769;DHT22;6448;48.916;8.990;2023-02-10T05:14:20;2.50;51.20
12769;DHT22;6448;48.916;8.990;2023-02-10T05:15:21;2.50;51.20
12769;DHT22;6448;48.916;8.990;2023-02-10T05:16:22;2.50;51.20
12769;DHT22;6448;48.916;8.990;2023-02-10T05:17:24;2.50;51.20
12769;DHT22;6448;48.916;8.990;2023-02-10T05:18:25;2.50;51.20
12769;DHT22;6448;48.916;8.990;2023-02-10T05:19:27;2.50;51.20
12769;DHT22;6448;48.916;8.990;2023-02-10T05:20:27;2.50;51.20
12769;DHT22;6448;48.916;8.990;2023-02-10T05:21:30;2.50;51.20
12769;DHT22;6448;48.916;8.990;2023-02-10T05:22:34;2.50;51.30
12769;DHT22;6448;48.916;8.990;2023-02-10T05:23:36;2.50;51.20
12769;DHT22;6448;48.916;8.990;2023-02-10T05:24:36;2.50;51.30
12769;DHT22;6448;48.916;8.990;2023-02-10T05:25:38;2.50;51.20
12769;DHT22;6448;48.916;8.990;2023-02-10T05:26:39;2.50;51.20
12769;DHT22;6448;48.916;8.990;2023-02-10T05:27:41;2.50;51.20
12769;DHT22;6448;48.916;8.990;2023-02-10T05:28:41;2.50;51.30
12769;DHT22;6448;48.916;8.990;2023-02-10T05:29:43;2.50;51.30
12769;DHT22;6448;48.916;8.990;2023-02-10T05:30:44;2.40;51.20
12769;DHT22;6448;48.916;8.990;2023-02-10T05:31:46;2.50;51.30
12769;DHT22;6448;48.916;8.990;2023-02-10T05:32:47;2.50;51.30
12769;DHT22;6448;48.916;8.990;2023-02-10T05:33:49;2.40;51.30
12769;DHT22;6448;48.916;8.990;2023-02-10T05:34:49;2.40;51.30
12769;DHT22;6448;48.916;8.990;2023-02-10T05:35:51;2.40;51.30
12769;DHT22;6448;48.916;8.990;2023-02-10T05:36:53;2.40;51.40
12769;DHT22;6448;48.916;8.990;2023-02-10T05:37:55;2.40;51.30
12769;DHT22;6448;48.916;8.990;2023-02-10T05:38:56;2.40;51.40
12769;DHT22;6448;48.916;8.990;2023-02-10T05:40:15;2.40;51.40
12769;DHT22;6448;48.916;8.990;2023-02-10T05:41:17;2.40;51.40
12769;DHT22;6448;48.916;8.990;2023-02-10T05:42:17;2.40;51.40
12769;DHT22;6448;48.916;8.990;2023-02-10T05:43:19;2.40;51.40
12769;DHT22;6448;48.916;8.990;2023-02-10T05:44:20;2.40;51.40
12769;DHT22;6448;48.916;8.990;2023-02-10T05:45:22;2.40;51.30
12769;DHT22;6448;48.916;8.990;2023-02-10T05:46:23;2.40;51.40
12769;DHT22;6448;48.916;8.990;2023-02-10T05:47:25;2.40;51.40
12769;DHT22;6448;48.916;8.990;2023-02-10T05:48:25;2.40;51.40
12769;DHT22;6448;48.916;8.990;2023-02-10T05:49:27;2.40;51.40
12769;DHT22;6448;48.916;8.990;2023-02-10T05:50:28;2.40;51.40
12769;DHT22;6448;48.916;8.990;2023-02-10T05:51:30;2.40;51.40
12769;DHT22;6448;48.916;8.990;2023-02-10T05:52:32;2.40;51.40
12769;DHT22;6448;48.916;8.990;2023-02-10T05:53:34;2.40;51.40
12769;DHT22;6448;48.916;8.990;2023-02-10T05:54:35;2.40;51.40
12769;DHT22;6448;48.916;8.990;2023-02-10T05:55:37;2.40;51.40
12769;DHT22;6448;48.916;8.990;2023-02-10T05:56:38;2.40;51.40
12769;DHT22;6448;48.916;8.990;2023-02-10T05:57:40;2.40;51.40
12769;DHT22;6448;48.916;8.990;2023-02-10T05:58:41;2.40;51.40
12769;DHT22;6448;48.916;8.990;2023-02-10T05:59:42;2.40;51.40
12769;DHT22;6448;48.916;8.990;2023-02-10T06:00:44;2.40;51.40
12769;DHT22;6448;48.916;8.990;2023-02-10T06:01:45;2.40;51.40
12769;DHT22;6448;48.916;8.990;2023-02-10T06:02:46;2.30;51.40
12769;DHT22;6448;48.916;8.990;2023-02-10T06:03:47;2.30;51.40
12769;DHT22;6448;48.916;8.990;2023-02-10T06:04:49;2.30;51.40
12769;DHT22;6448;48.916;8.990;2023-02-10T06:05:51;2.30;51.40
12769;DHT22;6448;48.916;8.990;2023-02-10T06:06:51;2.30;51.40
12769;DHT22;6448;48.916;8.990;2023-02-10T06:07:55;2.30;51.40
12769;DHT22;6448;48.916;8.990;2023-02-10T06:08:56;2.30;51.30
12769;DHT22;6448;48.916;8.990;2023-02-10T06:09:57;2.70;51.50
12769;DHT22;6448;48.916;8.990;2023-02-10T06:10:58;2.30;51.30
12769;DHT22;6448;48.916;8.990;2023-02-10T06:12:00;2.30;51.30
12769;DHT22;6448;48.916;8.990;2023-02-10T06:13:02;2.30;51.30
12769;DHT22;6448;48.916;8.990;2023-02-10T06:14:04;2.30;51.30
12769;DHT22;6448;48.916;8.990;2023-02-10T06:15:05;2.00;51.20
12769;DHT22;6448;48.916;8.990;2023-02-10T06:16:08;2.30;51.30
12769;DHT22;6448;48.916;8.990;2023-02-10T06:17:08;2.30;51.30
12769;DHT22;6448;48.916;8.990;2023-02-10T06:18:10;2.30;51.30
12769;DHT22;6448;48.916;8.990;2023-02-10T06:19:11;2.30;51.30
12769;DHT22;6448;48.916;8.990;2023-02-10T06:20:13;2.30;51.30
12769;DHT22;6448;48.916;8.990;2023-02-10T06:21:14;2.30;51.20
12769;DHT22;6448;48.916;8.990;2023-02-10T06:22:16;2.20;51.20
12769;DHT22;6448;48.916;8.990;2023-02-10T06:23:18;2.20;51.20
12769;DHT22;6448;48.916;8.990;2023-02-10T06:24:21;2.30;51.30
12769;DHT22;6448;48.916;8.990;2023-02-10T06:25:21;2.20;51.20
12769;DHT22;6448;48.916;8.990;2023-02-10T06:26:23;2.20;51.20
12769;DHT22;6448;48.916;8.990;2023-02-10T06:27:24;2.20;51.20
12769;DHT22;6448;48.916;8.990;2023-02-10T06:28:27;2.20;51.20
12769;DHT22;6448;48.916;8.990;2023-02-10T06:29:28;2.20;51.30
12769;DHT22;6448;48.916;8.990;2023-02-10T06:30:30;2.20;51.20
12769;DHT22;6448;48.916;8.990;2023-02-10T06:31:31;2.20;51.20
12769;DHT22;6448;48.916;8.990;2023-02-10T06:32:32;2.20;51.30
12769;DHT22;6448;48.916;8.990;2023-02-10T06:33:33;2.20;51.30
12769;DHT22;6448;48.916;8.990;2023-02-10T06:34:35;2.20;51.30
12769;DHT22;6448;48.916;8.990;2023-02-10T06:35:36;2.20;51.40
12769;DHT22;6448;48.916;8.990;2023-02-10T06:36:38;2.20;51.30
12769;DHT22;6448;48.916;8.990;2023-02-10T06:37:38;2.20;51.30
12769;DHT22;6448;48.916;8.990;2023-02-10T06:38:42;2.40;51.40
12769;DHT22;6448;48.916;8.990;2023-02-10T06:39:42;2.20;51.30
12769;DHT22;6448;48.916;8.990;2023-02-10T06:40:44;2.20;51.30
12769;DHT22;6448;48.916;8.990;2023-02-10T06:41:45;2.20;51.30
12769;DHT22;6448;48.916;8.990;2023-02-10T06:42:47;2.20;51.30
12769;DHT22;6448;48.916;8.990;2023-02-10T06:43:49;2.20;51.30
12769;DHT22;6448;48.916;8.990;2023-02-10T06:44:51;2.20;51.30
12769;DHT22;6448;48.916;8.990;2023-02-10T06:45:54;2.20;51.30
12769;DHT22;6448;48.916;8.990;2023-02-10T06:46:54;2.20;51.30
12769;DHT22;6448;48.916;8.990;2023-02-10T06:47:56;2.20;51.30
12769;DHT22;6448;48.916;8.990;2023-02-10T06:48:57;2.20;51.20
12769;DHT22;6448;48.916;8.990;2023-02-10T06:49:59;2.20;51.20
12769;DHT22;6448;48.916;8.990;2023-02-10T06:51:00;1.90;51.00
12769;DHT22;6448;48.916;8.990;2023-02-10T06:52:03;2.20;51.20
12769;DHT22;6448;48.916;8.990;2023-02-10T06:53:03;2.20;51.20